Sugarloaf Shores, Florida
Current Conditions -  °F | °C
As of 6:53 PM on Friday 19 Dec 2014 (Local Time) from KNQX Reporting Station
Scattered Clouds Scattered Clouds  
Wind Chill: 70°   Ceiling: Unl
Heat Index: 70°   Visibility: 10mi
Dew Point: 63°   Wind: 6mph
Humidity: 78%   Direction: 50°NE
Pressure: 30.04"   Gusts: NA
Location:  24.64°N, 81.56°W
Report Text: KNQX 192353Z 05005KT 10SM FEW035 SCT250 21/17 A3004 RMK AO2 SLP171 T02110172 10250 20211 52009
Loading
Personal Weather Stations






























Interactive Weather Map New forecast layout! Learn more

10-Day Weather Forecast

Advertisements
Track Severe Weather on mobile